sensor_id;sensor_type;location;lat;lon;timestamp;P1;durP1;ratioP1;P2;durP2;ratioP2
34060;SDS011;20336;-33.424;-70.638;2024-03-08T00:00:01;9.63;;;1.60;;
34060;SDS011;20336;-33.424;-70.638;2024-03-08T00:02:38;4.20;;;1.25;;
34060;SDS011;20336;-33.424;-70.638;2024-03-08T00:05:05;7.15;;;1.33;;
34060;SDS011;20336;-33.424;-70.638;2024-03-08T00:07:37;6.43;;;1.52;;
34060;SDS011;20336;-33.424;-70.638;2024-03-08T00:10:04;8.15;;;1.50;;
34060;SDS011;20336;-33.424;-70.638;2024-03-08T00:12:31;4.40;;;1.30;;
34060;SDS011;20336;-33.424;-70.638;2024-03-08T00:14:58;3.55;;;1.33;;
34060;SDS011;20336;-33.424;-70.638;2024-03-08T00:17:25;9.73;;;1.55;;
34060;SDS011;20336;-33.424;-70.638;2024-03-08T00:19:52;4.72;;;1.20;;
34060;SDS011;20336;-33.424;-70.638;2024-03-08T00:22:19;8.25;;;1.40;;
34060;SDS011;20336;-33.424;-70.638;2024-03-08T00:24:47;7.95;;;1.13;;
34060;SDS011;20336;-33.424;-70.638;2024-03-08T00:27:17;5.88;;;1.25;;
34060;SDS011;20336;-33.424;-70.638;2024-03-08T00:29:46;6.25;;;1.45;;
34060;SDS011;20336;-33.424;-70.638;2024-03-08T00:32:13;8.02;;;1.42;;
34060;SDS011;20336;-33.424;-70.638;2024-03-08T00:34:40;7.68;;;1.35;;
34060;SDS011;20336;-33.424;-70.638;2024-03-08T00:37:08;4.25;;;1.20;;
34060;SDS011;20336;-33.424;-70.638;2024-03-08T00:39:35;7.65;;;1.40;;
34060;SDS011;20336;-33.424;-70.638;2024-03-08T00:42:02;6.28;;;1.50;;
34060;SDS011;20336;-33.424;-70.638;2024-03-08T00:44:29;11.30;;;1.60;;
34060;SDS011;20336;-33.424;-70.638;2024-03-08T00:46:57;7.25;;;1.25;;
34060;SDS011;20336;-33.424;-70.638;2024-03-08T00:49:24;7.22;;;1.25;;
34060;SDS011;20336;-33.424;-70.638;2024-03-08T00:51:51;4.75;;;1.30;;
34060;SDS011;20336;-33.424;-70.638;2024-03-08T00:54:18;7.22;;;1.02;;
34060;SDS011;20336;-33.424;-70.638;2024-03-08T00:56:45;4.28;;;1.10;;
34060;SDS011;20336;-33.424;-70.638;2024-03-08T00:59:12;4.88;;;1.33;;
34060;SDS011;20336;-33.424;-70.638;2024-03-08T01:01:40;4.68;;;1.30;;
34060;SDS011;20336;-33.424;-70.638;2024-03-08T01:04:07;4.05;;;1.60;;
34060;SDS011;20336;-33.424;-70.638;2024-03-08T01:06:34;3.08;;;1.02;;
34060;SDS011;20336;-33.424;-70.638;2024-03-08T01:09:01;3.03;;;1.08;;
34060;SDS011;20336;-33.424;-70.638;2024-03-08T01:11:28;5.15;;;1.20;;
34060;SDS011;20336;-33.424;-70.638;2024-03-08T01:13:55;6.88;;;1.30;;
34060;SDS011;20336;-33.424;-70.638;2024-03-08T01:16:22;4.78;;;0.93;;
34060;SDS011;20336;-33.424;-70.638;2024-03-08T01:18:49;3.78;;;1.30;;
34060;SDS011;20336;-33.424;-70.638;2024-03-08T01:21:16;3.83;;;1.25;;
34060;SDS011;20336;-33.424;-70.638;2024-03-08T01:23:43;4.07;;;0.88;;
34060;SDS011;20336;-33.424;-70.638;2024-03-08T01:26:10;3.47;;;0.88;;
34060;SDS011;20336;-33.424;-70.638;2024-03-08T01:28:37;4.30;;;1.50;;
34060;SDS011;20336;-33.424;-70.638;2024-03-08T01:31:04;5.32;;;1.20;;
34060;SDS011;20336;-33.424;-70.638;2024-03-08T01:33:31;5.10;;;1.10;;
34060;SDS011;20336;-33.424;-70.638;2024-03-08T01:35:58;4.25;;;1.40;;
34060;SDS011;20336;-33.424;-70.638;2024-03-08T01:38:25;7.43;;;1.10;;
34060;SDS011;20336;-33.424;-70.638;2024-03-08T01:40:52;3.30;;;1.08;;
34060;SDS011;20336;-33.424;-70.638;2024-03-08T01:45:46;3.00;;;1.15;;
34060;SDS011;20336;-33.424;-70.638;2024-03-08T01:48:14;5.22;;;1.35;;
34060;SDS011;20336;-33.424;-70.638;2024-03-08T01:50:42;3.88;;;1.25;;
34060;SDS011;20336;-33.424;-70.638;2024-03-08T01:53:09;4.50;;;1.23;;
34060;SDS011;20336;-33.424;-70.638;2024-03-08T01:55:37;5.50;;;1.15;;
34060;SDS011;20336;-33.424;-70.638;2024-03-08T01:58:05;11.80;;;1.80;;
34060;SDS011;20336;-33.424;-70.638;2024-03-08T02:00:32;4.38;;;1.65;;
34060;SDS011;20336;-33.424;-70.638;2024-03-08T02:03:00;5.07;;;2.42;;
34060;SDS011;20336;-33.424;-70.638;2024-03-08T02:05:28;12.25;;;3.40;;
34060;SDS011;20336;-33.424;-70.638;2024-03-08T02:07:56;6.47;;;2.72;;
34060;SDS011;20336;-33.424;-70.638;2024-03-08T02:10:23;8.43;;;2.50;;
34060;SDS011;20336;-33.424;-70.638;2024-03-08T02:12:50;8.02;;;2.05;;
34060;SDS011;20336;-33.424;-70.638;2024-03-08T02:15:17;6.55;;;1.90;;
34060;SDS011;20336;-33.424;-70.638;2024-03-08T02:17:45;5.82;;;1.92;;
34060;SDS011;20336;-33.424;-70.638;2024-03-08T02:20:12;9.20;;;2.00;;
34060;SDS011;20336;-33.424;-70.638;2024-03-08T02:22:39;13.90;;;2.45;;
34060;SDS011;20336;-33.424;-70.638;2024-03-08T02:25:06;7.15;;;2.08;;
34060;SDS011;20336;-33.424;-70.638;2024-03-08T02:27:35;5.80;;;1.70;;
34060;SDS011;20336;-33.424;-70.638;2024-03-08T02:30:02;5.63;;;1.73;;
34060;SDS011;20336;-33.424;-70.638;2024-03-08T02:32:30;4.85;;;1.50;;
34060;SDS011;20336;-33.424;-70.638;2024-03-08T02:35:01;5.35;;;1.60;;
34060;SDS011;20336;-33.424;-70.638;2024-03-08T02:37:28;6.22;;;1.88;;
34060;SDS011;20336;-33.424;-70.638;2024-03-08T02:39:55;5.28;;;1.50;;
34060;SDS011;20336;-33.424;-70.638;2024-03-08T02:42:22;5.30;;;1.30;;
34060;SDS011;20336;-33.424;-70.638;2024-03-08T02:44:49;6.97;;;1.40;;
34060;SDS011;20336;-33.424;-70.638;2024-03-08T02:47:16;3.17;;;1.35;;
34060;SDS011;20336;-33.424;-70.638;2024-03-08T02:49:43;4.75;;;1.50;;
34060;SDS011;20336;-33.424;-70.638;2024-03-08T02:52:10;4.45;;;1.40;;
34060;SDS011;20336;-33.424;-70.638;2024-03-08T02:54:37;4.90;;;1.15;;
34060;SDS011;20336;-33.424;-70.638;2024-03-08T02:57:04;2.10;;;0.90;;
34060;SDS011;20336;-33.424;-70.638;2024-03-08T02:59:32;4.20;;;1.30;;
34060;SDS011;20336;-33.424;-70.638;2024-03-08T03:02:00;2.92;;;1.10;;
34060;SDS011;20336;-33.424;-70.638;2024-03-08T03:04:27;2.05;;;0.85;;
34060;SDS011;20336;-33.424;-70.638;2024-03-08T03:06:54;3.25;;;0.80;;
34060;SDS011;20336;-33.424;-70.638;2024-03-08T03:09:20;4.68;;;1.23;;
34060;SDS011;20336;-33.424;-70.638;2024-03-08T03:11:52;4.18;;;0.80;;
34060;SDS011;20336;-33.424;-70.638;2024-03-08T03:14:23;2.08;;;0.70;;
34060;SDS011;20336;-33.424;-70.638;2024-03-08T03:16:52;2.50;;;0.70;;
34060;SDS011;20336;-33.424;-70.638;2024-03-08T03:19:20;1.77;;;0.50;;
34060;SDS011;20336;-33.424;-70.638;2024-03-08T03:21:46;1.85;;;0.40;;
34060;SDS011;20336;-33.424;-70.638;2024-03-08T03:24:13;3.05;;;0.45;;
34060;SDS011;20336;-33.424;-70.638;2024-03-08T03:26:41;2.58;;;0.60;;
34060;SDS011;20336;-33.424;-70.638;2024-03-08T03:29:09;1.60;;;0.82;;
34060;SDS011;20336;-33.424;-70.638;2024-03-08T03:31:36;2.67;;;0.70;;
34060;SDS011;20336;-33.424;-70.638;2024-03-08T03:34:03;1.95;;;0.70;;
34060;SDS011;20336;-33.424;-70.638;2024-03-08T03:36:34;4.53;;;0.65;;
34060;SDS011;20336;-33.424;-70.638;2024-03-08T03:39:03;2.38;;;0.80;;
34060;SDS011;20336;-33.424;-70.638;2024-03-08T03:41:38;2.30;;;0.88;;
34060;SDS011;20336;-33.424;-70.638;2024-03-08T03:44:05;3.63;;;0.65;;
34060;SDS011;20336;-33.424;-70.638;2024-03-08T03:46:32;1.77;;;0.60;;
34060;SDS011;20336;-33.424;-70.638;2024-03-08T03:48:59;1.55;;;0.57;;
34060;SDS011;20336;-33.424;-70.638;2024-03-08T03:51:26;1.58;;;0.50;;
34060;SDS011;20336;-33.424;-70.638;2024-03-08T03:53:54;3.30;;;0.80;;
34060;SDS011;20336;-33.424;-70.638;2024-03-08T03:56:26;1.60;;;0.73;;
34060;SDS011;20336;-33.424;-70.638;2024-03-08T03:58:53;2.17;;;0.70;;
34060;SDS011;20336;-33.424;-70.638;2024-03-08T04:01:20;1.77;;;0.70;;
34060;SDS011;20336;-33.424;-70.638;2024-03-08T04:03:47;2.15;;;0.70;;
34060;SDS011;20336;-33.424;-70.638;2024-03-08T04:06:14;2.35;;;0.75;;
34060;SDS011;20336;-33.424;-70.638;2024-03-08T04:08:40;1.90;;;0.60;;
34060;SDS011;20336;-33.424;-70.638;2024-03-08T04:11:07;2.92;;;0.60;;
34060;SDS011;20336;-33.424;-70.638;2024-03-08T04:13:34;3.17;;;0.80;;
34060;SDS011;20336;-33.424;-70.638;2024-03-08T04:16:02;2.55;;;0.77;;
34060;SDS011;20336;-33.424;-70.638;2024-03-08T04:18:33;3.72;;;0.95;;
34060;SDS011;20336;-33.424;-70.638;2024-03-08T04:21:04;3.58;;;0.80;;
34060;SDS011;20336;-33.424;-70.638;2024-03-08T04:23:32;2.30;;;1.00;;
34060;SDS011;20336;-33.424;-70.638;2024-03-08T04:26:02;2.67;;;0.90;;
34060;SDS011;20336;-33.424;-70.638;2024-03-08T04:28:31;4.57;;;0.90;;
34060;SDS011;20336;-33.424;-70.638;2024-03-08T04:30:58;2.63;;;1.20;;
34060;SDS011;20336;-33.424;-70.638;2024-03-08T04:33:26;1.67;;;0.90;;
34060;SDS011;20336;-33.424;-70.638;2024-03-08T04:35:53;5.03;;;1.20;;
34060;SDS011;20336;-33.424;-70.638;2024-03-08T04:38:21;3.83;;;1.10;;
34060;SDS011;20336;-33.424;-70.638;2024-03-08T04:40:48;4.50;;;1.10;;
34060;SDS011;20336;-33.424;-70.638;2024-03-08T04:43:15;1.93;;;0.97;;
34060;SDS011;20336;-33.424;-70.638;2024-03-08T04:45:44;1.60;;;0.93;;
34060;SDS011;20336;-33.424;-70.638;2024-03-08T04:48:11;2.40;;;0.80;;
34060;SDS011;20336;-33.424;-70.638;2024-03-08T04:50:38;5.77;;;1.30;;
34060;SDS011;20336;-33.424;-70.638;2024-03-08T04:53:05;3.37;;;1.13;;
34060;SDS011;20336;-33.424;-70.638;2024-03-08T04:55:34;3.03;;;1.20;;
34060;SDS011;20336;-33.424;-70.638;2024-03-08T04:58:01;4.20;;;1.20;;
34060;SDS011;20336;-33.424;-70.638;2024-03-08T05:00:29;8.07;;;1.60;;
34060;SDS011;20336;-33.424;-70.638;2024-03-08T05:02:56;3.07;;;1.20;;
34060;SDS011;20336;-33.424;-70.638;2024-03-08T05:05:24;4.53;;;1.10;;
34060;SDS011;20336;-33.424;-70.638;2024-03-08T05:07:53;4.47;;;1.30;;
34060;SDS011;20336;-33.424;-70.638;2024-03-08T05:10:20;4.73;;;1.23;;
34060;SDS011;20336;-33.424;-70.638;2024-03-08T05:12:47;5.63;;;1.37;;
34060;SDS011;20336;-33.424;-70.638;2024-03-08T05:15:14;5.53;;;1.30;;
34060;SDS011;20336;-33.424;-70.638;2024-03-08T05:17:41;5.60;;;1.40;;
34060;SDS011;20336;-33.424;-70.638;2024-03-08T05:20:08;4.03;;;1.77;;
34060;SDS011;20336;-33.424;-70.638;2024-03-08T05:22:37;5.83;;;1.80;;
34060;SDS011;20336;-33.424;-70.638;2024-03-08T05:25:06;6.83;;;1.93;;
34060;SDS011;20336;-33.424;-70.638;2024-03-08T05:27:35;8.37;;;1.80;;
34060;SDS011;20336;-33.424;-70.638;2024-03-08T05:30:03;3.90;;;1.53;;
34060;SDS011;20336;-33.424;-70.638;2024-03-08T05:32:30;6.17;;;1.60;;
34060;SDS011;20336;-33.424;-70.638;2024-03-08T05:34:57;9.37;;;1.80;;
34060;SDS011;20336;-33.424;-70.638;2024-03-08T05:37:24;4.80;;;1.87;;
34060;SDS011;20336;-33.424;-70.638;2024-03-08T05:39:51;10.57;;;1.80;;
34060;SDS011;20336;-33.424;-70.638;2024-03-08T05:42:19;4.63;;;1.63;;
34060;SDS011;20336;-33.424;-70.638;2024-03-08T05:44:46;7.37;;;2.27;;
34060;SDS011;20336;-33.424;-70.638;2024-03-08T05:47:15;4.77;;;1.63;;
34060;SDS011;20336;-33.424;-70.638;2024-03-08T05:49:41;6.07;;;2.00;;
34060;SDS011;20336;-33.424;-70.638;2024-03-08T05:52:09;6.53;;;1.67;;
34060;SDS011;20336;-33.424;-70.638;2024-03-08T05:54:36;8.83;;;2.33;;
34060;SDS011;20336;-33.424;-70.638;2024-03-08T05:57:03;5.30;;;1.43;;
34060;SDS011;20336;-33.424;-70.638;2024-03-08T05:59:31;7.80;;;1.63;;
34060;SDS011;20336;-33.424;-70.638;2024-03-08T06:01:58;5.73;;;1.80;;
34060;SDS011;20336;-33.424;-70.638;2024-03-08T06:04:25;5.60;;;1.60;;
34060;SDS011;20336;-33.424;-70.638;2024-03-08T06:06:52;8.70;;;1.50;;
34060;SDS011;20336;-33.424;-70.638;2024-03-08T06:09:21;4.83;;;1.40;;
34060;SDS011;20336;-33.424;-70.638;2024-03-08T06:11:48;4.70;;;1.10;;
34060;SDS011;20336;-33.424;-70.638;2024-03-08T06:14:15;7.27;;;1.70;;
34060;SDS011;20336;-33.424;-70.638;2024-03-08T06:16:44;5.33;;;1.40;;
34060;SDS011;20336;-33.424;-70.638;2024-03-08T06:19:12;4.77;;;1.23;;
34060;SDS011;20336;-33.424;-70.638;2024-03-08T06:21:39;3.63;;;1.13;;
34060;SDS011;20336;-33.424;-70.638;2024-03-08T06:24:06;6.23;;;1.40;;
34060;SDS011;20336;-33.424;-70.638;2024-03-08T06:26:33;3.53;;;0.80;;
34060;SDS011;20336;-33.424;-70.638;2024-03-08T06:29:03;4.13;;;1.20;;
34060;SDS011;20336;-33.424;-70.638;2024-03-08T06:31:32;5.13;;;1.23;;
34060;SDS011;20336;-33.424;-70.638;2024-03-08T06:33:59;2.73;;;1.20;;
34060;SDS011;20336;-33.424;-70.638;2024-03-08T06:36:27;3.70;;;1.03;;
34060;SDS011;20336;-33.424;-70.638;2024-03-08T06:38:54;3.47;;;1.07;;
34060;SDS011;20336;-33.424;-70.638;2024-03-08T06:41:35;2.73;;;0.80;;
34060;SDS011;20336;-33.424;-70.638;2024-03-08T06:44:02;7.70;;;1.03;;
34060;SDS011;20336;-33.424;-70.638;2024-03-08T06:46:29;1.57;;;0.70;;
34060;SDS011;20336;-33.424;-70.638;2024-03-08T06:48:56;2.70;;;0.60;;
34060;SDS011;20336;-33.424;-70.638;2024-03-08T06:51:23;3.50;;;0.90;;
34060;SDS011;20336;-33.424;-70.638;2024-03-08T06:53:50;3.80;;;1.13;;
34060;SDS011;20336;-33.424;-70.638;2024-03-08T06:56:18;2.40;;;0.87;;
34060;SDS011;20336;-33.424;-70.638;2024-03-08T06:58:46;4.30;;;1.00;;
34060;SDS011;20336;-33.424;-70.638;2024-03-08T07:01:13;4.00;;;1.17;;
34060;SDS011;20336;-33.424;-70.638;2024-03-08T07:03:43;2.50;;;0.93;;
34060;SDS011;20336;-33.424;-70.638;2024-03-08T07:06:11;2.20;;;0.80;;
34060;SDS011;20336;-33.424;-70.638;2024-03-08T07:08:37;2.03;;;0.97;;
34060;SDS011;20336;-33.424;-70.638;2024-03-08T07:11:04;3.83;;;0.83;;
34060;SDS011;20336;-33.424;-70.638;2024-03-08T07:13:31;3.37;;;0.80;;
34060;SDS011;20336;-33.424;-70.638;2024-03-08T07:15:58;2.57;;;1.03;;
34060;SDS011;20336;-33.424;-70.638;2024-03-08T07:18:26;5.67;;;0.90;;
34060;SDS011;20336;-33.424;-70.638;2024-03-08T07:20:55;5.00;;;1.23;;
34060;SDS011;20336;-33.424;-70.638;2024-03-08T07:23:22;5.30;;;1.23;;
34060;SDS011;20336;-33.424;-70.638;2024-03-08T07:26:07;2.93;;;0.90;;
34060;SDS011;20336;-33.424;-70.638;2024-03-08T07:28:35;4.07;;;1.03;;
34060;SDS011;20336;-33.424;-70.638;2024-03-08T07:31:02;4.60;;;1.10;;
34060;SDS011;20336;-33.424;-70.638;2024-03-08T07:34:07;6.57;;;1.40;;
34060;SDS011;20336;-33.424;-70.638;2024-03-08T07:36:34;4.17;;;1.63;;
34060;SDS011;20336;-33.424;-70.638;2024-03-08T07:39:01;4.87;;;1.33;;
34060;SDS011;20336;-33.424;-70.638;2024-03-08T07:41:31;4.93;;;1.50;;
34060;SDS011;20336;-33.424;-70.638;2024-03-08T07:44:01;3.90;;;1.30;;
34060;SDS011;20336;-33.424;-70.638;2024-03-08T07:46:29;5.23;;;1.30;;
34060;SDS011;20336;-33.424;-70.638;2024-03-08T07:48:56;3.23;;;1.10;;
34060;SDS011;20336;-33.424;-70.638;2024-03-08T07:51:23;2.97;;;1.33;;
34060;SDS011;20336;-33.424;-70.638;2024-03-08T07:53:50;6.50;;;0.90;;
34060;SDS011;20336;-33.424;-70.638;2024-03-08T07:56:20;4.53;;;1.30;;
34060;SDS011;20336;-33.424;-70.638;2024-03-08T07:58:47;4.73;;;1.37;;
34060;SDS011;20336;-33.424;-70.638;2024-03-08T08:01:17;4.00;;;1.07;;
34060;SDS011;20336;-33.424;-70.638;2024-03-08T08:03:47;5.70;;;1.40;;
34060;SDS011;20336;-33.424;-70.638;2024-03-08T08:06:15;6.93;;;1.50;;
34060;SDS011;20336;-33.424;-70.638;2024-03-08T08:08:42;3.23;;;1.47;;
34060;SDS011;20336;-33.424;-70.638;2024-03-08T08:11:09;8.90;;;1.77;;
34060;SDS011;20336;-33.424;-70.638;2024-03-08T08:13:36;5.73;;;1.87;;
34060;SDS011;20336;-33.424;-70.638;2024-03-08T08:16:04;8.43;;;1.57;;
34060;SDS011;20336;-33.424;-70.638;2024-03-08T08:18:31;3.40;;;1.67;;
34060;SDS011;20336;-33.424;-70.638;2024-03-08T08:20:59;4.60;;;1.63;;
34060;SDS011;20336;-33.424;-70.638;2024-03-08T08:23:26;6.27;;;1.67;;
34060;SDS011;20336;-33.424;-70.638;2024-03-08T08:25:53;4.47;;;1.83;;
34060;SDS011;20336;-33.424;-70.638;2024-03-08T08:28:21;6.17;;;1.80;;
34060;SDS011;20336;-33.424;-70.638;2024-03-08T08:30:48;5.87;;;1.73;;
34060;SDS011;20336;-33.424;-70.638;2024-03-08T08:33:14;4.70;;;1.60;;
34060;SDS011;20336;-33.424;-70.638;2024-03-08T08:35:41;6.33;;;1.80;;
34060;SDS011;20336;-33.424;-70.638;2024-03-08T08:38:08;6.10;;;1.57;;
34060;SDS011;20336;-33.424;-70.638;2024-03-08T08:40:35;5.47;;;1.97;;
34060;SDS011;20336;-33.424;-70.638;2024-03-08T08:43:02;6.93;;;1.63;;
34060;SDS011;20336;-33.424;-70.638;2024-03-08T08:45:30;5.17;;;1.90;;
34060;SDS011;20336;-33.424;-70.638;2024-03-08T08:47:57;6.70;;;1.93;;
34060;SDS011;20336;-33.424;-70.638;2024-03-08T08:50:25;4.60;;;1.60;;
34060;SDS011;20336;-33.424;-70.638;2024-03-08T08:52:54;5.73;;;1.73;;
34060;SDS011;20336;-33.424;-70.638;2024-03-08T08:55:21;6.10;;;2.00;;
34060;SDS011;20336;-33.424;-70.638;2024-03-08T08:57:53;11.83;;;2.60;;
34060;SDS011;20336;-33.424;-70.638;2024-03-08T09:00:21;8.03;;;1.90;;
34060;SDS011;20336;-33.424;-70.638;2024-03-08T09:02:52;4.77;;;2.10;;
34060;SDS011;20336;-33.424;-70.638;2024-03-08T09:05:21;7.40;;;2.30;;
34060;SDS011;20336;-33.424;-70.638;2024-03-08T09:07:49;7.63;;;2.07;;
34060;SDS011;20336;-33.424;-70.638;2024-03-08T09:10:16;5.50;;;1.77;;
34060;SDS011;20336;-33.424;-70.638;2024-03-08T09:12:44;5.73;;;1.50;;
34060;SDS011;20336;-33.424;-70.638;2024-03-08T09:15:11;29.83;;;3.50;;
34060;SDS011;20336;-33.424;-70.638;2024-03-08T09:17:38;43.57;;;4.17;;
34060;SDS011;20336;-33.424;-70.638;2024-03-08T09:20:08;15.50;;;2.33;;
34060;SDS011;20336;-33.424;-70.638;2024-03-08T09:22:36;9.30;;;2.30;;
34060;SDS011;20336;-33.424;-70.638;2024-03-08T09:25:03;4.83;;;2.00;;
34060;SDS011;20336;-33.424;-70.638;2024-03-08T09:27:30;5.93;;;2.20;;
34060;SDS011;20336;-33.424;-70.638;2024-03-08T09:29:57;6.50;;;1.63;;
34060;SDS011;20336;-33.424;-70.638;2024-03-08T09:32:24;2.83;;;1.20;;
34060;SDS011;20336;-33.424;-70.638;2024-03-08T09:34:51;5.07;;;1.80;;
34060;SDS011;20336;-33.424;-70.638;2024-03-08T09:37:19;7.00;;;1.80;;
34060;SDS011;20336;-33.424;-70.638;2024-03-08T09:39:46;8.77;;;1.87;;
34060;SDS011;20336;-33.424;-70.638;2024-03-08T09:42:15;7.17;;;2.10;;
34060;SDS011;20336;-33.424;-70.638;2024-03-08T09:44:46;8.40;;;2.47;;
34060;SDS011;20336;-33.424;-70.638;2024-03-08T09:47:14;6.50;;;2.10;;
34060;SDS011;20336;-33.424;-70.638;2024-03-08T09:49:42;10.77;;;2.60;;
34060;SDS011;20336;-33.424;-70.638;2024-03-08T09:52:09;10.67;;;3.10;;
34060;SDS011;20336;-33.424;-70.638;2024-03-08T09:54:37;10.47;;;2.90;;
34060;SDS011;20336;-33.424;-70.638;2024-03-08T09:57:05;9.90;;;2.60;;
34060;SDS011;20336;-33.424;-70.638;2024-03-08T09:59:34;9.70;;;2.60;;
34060;SDS011;20336;-33.424;-70.638;2024-03-08T10:02:01;6.70;;;2.37;;
34060;SDS011;20336;-33.424;-70.638;2024-03-08T10:04:28;9.80;;;2.87;;
34060;SDS011;20336;-33.424;-70.638;2024-03-08T10:06:58;11.07;;;2.57;;
34060;SDS011;20336;-33.424;-70.638;2024-03-08T10:09:25;11.93;;;2.70;;
34060;SDS011;20336;-33.424;-70.638;2024-03-08T10:11:56;7.47;;;2.50;;
34060;SDS011;20336;-33.424;-70.638;2024-03-08T10:14:25;12.53;;;3.00;;
34060;SDS011;20336;-33.424;-70.638;2024-03-08T10:16:52;11.57;;;2.67;;
34060;SDS011;20336;-33.424;-70.638;2024-03-08T10:19:19;13.87;;;3.10;;
34060;SDS011;20336;-33.424;-70.638;2024-03-08T10:21:50;8.73;;;2.67;;
34060;SDS011;20336;-33.424;-70.638;2024-03-08T10:24:22;7.57;;;2.27;;
34060;SDS011;20336;-33.424;-70.638;2024-03-08T10:26:52;11.50;;;2.67;;
34060;SDS011;20336;-33.424;-70.638;2024-03-08T10:29:22;8.23;;;2.30;;
34060;SDS011;20336;-33.424;-70.638;2024-03-08T10:31:49;10.63;;;2.60;;
34060;SDS011;20336;-33.424;-70.638;2024-03-08T10:34:17;8.43;;;2.30;;
34060;SDS011;20336;-33.424;-70.638;2024-03-08T10:36:45;11.90;;;2.50;;
34060;SDS011;20336;-33.424;-70.638;2024-03-08T10:39:20;11.00;;;2.30;;
34060;SDS011;20336;-33.424;-70.638;2024-03-08T10:41:56;10.10;;;2.40;;
34060;SDS011;20336;-33.424;-70.638;2024-03-08T10:47:02;11.40;;;2.13;;
34060;SDS011;20336;-33.424;-70.638;2024-03-08T10:49:32;11.40;;;2.60;;
34060;SDS011;20336;-33.424;-70.638;2024-03-08T10:52:03;9.40;;;2.20;;
34060;SDS011;20336;-33.424;-70.638;2024-03-08T10:54:33;5.87;;;2.17;;
34060;SDS011;20336;-33.424;-70.638;2024-03-08T10:57:02;11.27;;;2.20;;
34060;SDS011;20336;-33.424;-70.638;2024-03-08T10:59:31;8.67;;;2.23;;
34060;SDS011;20336;-33.424;-70.638;2024-03-08T11:01:59;13.43;;;2.40;;
34060;SDS011;20336;-33.424;-70.638;2024-03-08T11:04:26;13.13;;;2.33;;
34060;SDS011;20336;-33.424;-70.638;2024-03-08T11:07:00;8.40;;;2.20;;
34060;SDS011;20336;-33.424;-70.638;2024-03-08T11:09:36;6.50;;;1.90;;
34060;SDS011;20336;-33.424;-70.638;2024-03-08T11:12:20;16.33;;;2.80;;
34060;SDS011;20336;-33.424;-70.638;2024-03-08T11:14:48;13.77;;;2.50;;
34060;SDS011;20336;-33.424;-70.638;2024-03-08T11:17:15;11.37;;;2.20;;
34060;SDS011;20336;-33.424;-70.638;2024-03-08T11:19:46;12.27;;;2.20;;
34060;SDS011;20336;-33.424;-70.638;2024-03-08T11:22:23;10.77;;;2.60;;
34060;SDS011;20336;-33.424;-70.638;2024-03-08T11:25:05;10.50;;;2.30;;
34060;SDS011;20336;-33.424;-70.638;2024-03-08T11:27:38;13.40;;;2.23;;
34060;SDS011;20336;-33.424;-70.638;2024-03-08T11:30:06;9.33;;;2.47;;
34060;SDS011;20336;-33.424;-70.638;2024-03-08T11:32:52;10.30;;;2.47;;
34060;SDS011;20336;-33.424;-70.638;2024-03-08T11:35:20;15.87;;;2.47;;
34060;SDS011;20336;-33.424;-70.638;2024-03-08T11:37:48;6.40;;;2.30;;
34060;SDS011;20336;-33.424;-70.638;2024-03-08T11:40:16;11.70;;;2.50;;
34060;SDS011;20336;-33.424;-70.638;2024-03-08T11:42:48;14.47;;;2.53;;
34060;SDS011;20336;-33.424;-70.638;2024-03-08T11:45:17;16.13;;;2.67;;
34060;SDS011;20336;-33.424;-70.638;2024-03-08T11:47:46;8.47;;;1.80;;
34060;SDS011;20336;-33.424;-70.638;2024-03-08T11:50:14;11.43;;;2.47;;
34060;SDS011;20336;-33.424;-70.638;2024-03-08T11:52:41;9.70;;;2.40;;
34060;SDS011;20336;-33.424;-70.638;2024-03-08T11:55:08;10.30;;;2.23;;
34060;SDS011;20336;-33.424;-70.638;2024-03-08T11:57:35;12.17;;;2.30;;
34060;SDS011;20336;-33.424;-70.638;2024-03-08T12:00:03;8.83;;;2.03;;
34060;SDS011;20336;-33.424;-70.638;2024-03-08T12:02:33;12.87;;;2.60;;
34060;SDS011;20336;-33.424;-70.638;2024-03-08T12:05:08;8.73;;;2.40;;
34060;SDS011;20336;-33.424;-70.638;2024-03-08T12:07:42;9.30;;;2.23;;
34060;SDS011;20336;-33.424;-70.638;2024-03-08T12:12:46;12.37;;;2.70;;
34060;SDS011;20336;-33.424;-70.638;2024-03-08T12:15:14;9.33;;;2.40;;
34060;SDS011;20336;-33.424;-70.638;2024-03-08T12:17:43;12.83;;;2.70;;
34060;SDS011;20336;-33.424;-70.638;2024-03-08T12:20:17;15.60;;;2.73;;
34060;SDS011;20336;-33.424;-70.638;2024-03-08T12:22:47;21.13;;;3.23;;
34060;SDS011;20336;-33.424;-70.638;2024-03-08T12:25:14;15.73;;;3.33;;
34060;SDS011;20336;-33.424;-70.638;2024-03-08T12:27:42;15.33;;;3.40;;
34060;SDS011;20336;-33.424;-70.638;2024-03-08T12:30:45;10.70;;;2.77;;
34060;SDS011;20336;-33.424;-70.638;2024-03-08T12:33:05;15.50;;;3.57;;
34060;SDS011;20336;-33.424;-70.638;2024-03-08T12:35:53;18.53;;;3.53;;
34060;SDS011;20336;-33.424;-70.638;2024-03-08T12:38:24;17.53;;;4.17;;
34060;SDS011;20336;-33.424;-70.638;2024-03-08T12:41:00;19.67;;;4.27;;
34060;SDS011;20336;-33.424;-70.638;2024-03-08T12:43:27;14.73;;;3.20;;
34060;SDS011;20336;-33.424;-70.638;2024-03-08T12:45:59;15.70;;;3.47;;
34060;SDS011;20336;-33.424;-70.638;2024-03-08T12:48:27;13.45;;;3.70;;
34060;SDS011;20336;-33.424;-70.638;2024-03-08T12:50:54;16.53;;;3.50;;
34060;SDS011;20336;-33.424;-70.638;2024-03-08T12:53:20;14.50;;;3.50;;
34060;SDS011;20336;-33.424;-70.638;2024-03-08T12:55:48;14.27;;;3.40;;
34060;SDS011;20336;-33.424;-70.638;2024-03-08T12:58:15;20.10;;;4.33;;
34060;SDS011;20336;-33.424;-70.638;2024-03-08T13:00:42;18.60;;;4.18;;
34060;SDS011;20336;-33.424;-70.638;2024-03-08T13:03:09;15.80;;;5.28;;
34060;SDS011;20336;-33.424;-70.638;2024-03-08T13:05:37;14.93;;;5.45;;
34060;SDS011;20336;-33.424;-70.638;2024-03-08T13:08:08;16.30;;;4.10;;
34060;SDS011;20336;-33.424;-70.638;2024-03-08T13:10:39;15.60;;;3.40;;
34060;SDS011;20336;-33.424;-70.638;2024-03-08T13:13:09;13.98;;;3.90;;
34060;SDS011;20336;-33.424;-70.638;2024-03-08T13:15:37;16.02;;;4.68;;
34060;SDS011;20336;-33.424;-70.638;2024-03-08T13:18:18;18.13;;;4.13;;
34060;SDS011;20336;-33.424;-70.638;2024-03-08T13:20:46;16.23;;;3.70;;
34060;SDS011;20336;-33.424;-70.638;2024-03-08T13:23:17;18.77;;;3.30;;
34060;SDS011;20336;-33.424;-70.638;2024-03-08T13:25:44;15.00;;;3.85;;
34060;SDS011;20336;-33.424;-70.638;2024-03-08T13:28:13;12.35;;;3.60;;
34060;SDS011;20336;-33.424;-70.638;2024-03-08T13:30:56;19.88;;;3.78;;
34060;SDS011;20336;-33.424;-70.638;2024-03-08T13:33:23;18.05;;;4.22;;
34060;SDS011;20336;-33.424;-70.638;2024-03-08T13:35:51;14.90;;;4.00;;
34060;SDS011;20336;-33.424;-70.638;2024-03-08T13:41:21;14.35;;;4.05;;
34060;SDS011;20336;-33.424;-70.638;2024-03-08T13:43:50;26.90;;;4.95;;
34060;SDS011;20336;-33.424;-70.638;2024-03-08T13:46:17;21.45;;;4.10;;
34060;SDS011;20336;-33.424;-70.638;2024-03-08T13:48:44;23.42;;;5.13;;
34060;SDS011;20336;-33.424;-70.638;2024-03-08T13:51:11;15.30;;;4.40;;
34060;SDS011;20336;-33.424;-70.638;2024-03-08T13:53:40;16.38;;;4.45;;
34060;SDS011;20336;-33.424;-70.638;2024-03-08T13:56:08;23.02;;;4.70;;
34060;SDS011;20336;-33.424;-70.638;2024-03-08T13:58:38;12.02;;;4.35;;
34060;SDS011;20336;-33.424;-70.638;2024-03-08T14:01:06;23.60;;;4.38;;
34060;SDS011;20336;-33.424;-70.638;2024-03-08T14:03:37;15.77;;;4.20;;
34060;SDS011;20336;-33.424;-70.638;2024-03-08T14:06:07;20.92;;;4.95;;
34060;SDS011;20336;-33.424;-70.638;2024-03-08T14:08:52;21.48;;;4.13;;
34060;SDS011;20336;-33.424;-70.638;2024-03-08T14:11:36;20.15;;;4.85;;
34060;SDS011;20336;-33.424;-70.638;2024-03-08T14:14:03;15.25;;;4.50;;
34060;SDS011;20336;-33.424;-70.638;2024-03-08T14:16:48;15.70;;;4.07;;
34060;SDS011;20336;-33.424;-70.638;2024-03-08T14:19:19;18.35;;;4.85;;
34060;SDS011;20336;-33.424;-70.638;2024-03-08T14:21:46;19.27;;;4.60;;
34060;SDS011;20336;-33.424;-70.638;2024-03-08T14:24:16;17.48;;;4.15;;